»·PEaware :: QXE2199 KYKM-KSEA

QXE2199 :: KYKM-KSEA

FLIGHT INFORMATION

Flight Status: Arrived
Operator:
Horizon Air
More flights by this operator :: More flights under this callsign
Pilot: Adlai G. (28854)
Aircraft: DEHAVILLAND DASH 8 400
(DH8D)
More flights by this aircraft type
Origin: KYKM Yakima Air Term/Mcallister
United States
Destination: KSEA Seattle-Tacoma Intl
United States
More flights between these airports :: More routes between these airports
Route: YKM V4 CHINS CHINS4
File this flight plan on PilotEdge
Remarks:
Altitude:
(Current/Filed)
14,000ft
Speed:
(Current/Filed)
300kts
Departed: 08-Apr-20 03:29 PM
Arrived: 08-Apr-20 04:01 PM
Distance/Time
Traveled:
89nm/0:32
Distance/Time
To Go:
Arrived

Flight Plot

Page will automatically refresh every two minutes.


Map Options




Map Legend


Flown Route
Filed Route
Departure Airport
Arrival Airport
Navaid (VOR, NDB)
Fix

Horizontal Profiles

Position Reports

Time Latitude Longitude Heading Altitude Ground
Speed
08-Apr-20 14:37 46.569937 -120.541235 357 1102ft 0kts
08-Apr-20 14:38 46.569937 -120.541235 357 1102ft 0kts
08-Apr-20 14:39 46.569937 -120.541235 357 1102ft 0kts
08-Apr-20 14:40 46.569938 -120.541235 357 1102ft 0kts
08-Apr-20 14:40 46.569938 -120.541235 357 1102ft 0kts
08-Apr-20 14:42 46.569938 -120.541235 357 1102ft 0kts
08-Apr-20 14:43 46.569938 -120.541235 357 1102ft 0kts
08-Apr-20 14:43 46.569938 -120.541235 357 1102ft 0kts
08-Apr-20 14:44 46.569938 -120.541235 357 1102ft 0kts
08-Apr-20 14:46 46.569938 -120.541235 357 1102ft 0kts
08-Apr-20 14:46 46.569938 -120.541235 357 1102ft 0kts
08-Apr-20 14:47 46.569938 -120.541235 357 1102ft 0kts
08-Apr-20 14:48 46.569938 -120.541235 357 1102ft 0kts
08-Apr-20 14:49 46.569938 -120.541235 357 1102ft 0kts
08-Apr-20 14:50 46.569938 -120.541235 357 1102ft 0kts
08-Apr-20 14:51 46.569938 -120.541235 357 1102ft 0kts
08-Apr-20 14:52 46.569938 -120.541235 357 1102ft 0kts
08-Apr-20 14:53 46.569938 -120.541235 357 1102ft 0kts
08-Apr-20 14:54 46.569938 -120.541235 357 1102ft 0kts
08-Apr-20 14:55 46.569938 -120.541235 357 1102ft 0kts
08-Apr-20 14:56 46.569938 -120.541235 357 1102ft 0kts
08-Apr-20 14:57 46.569938 -120.541235 357 1102ft 0kts
08-Apr-20 14:58 46.569938 -120.541235 357 1102ft 0kts
08-Apr-20 14:59 46.569938 -120.541235 357 1102ft 0kts
08-Apr-20 15:00 46.569938 -120.541235 357 1102ft 0kts
08-Apr-20 15:01 46.569938 -120.541235 357 1102ft 0kts
08-Apr-20 15:02 46.569938 -120.541235 357 1102ft 0kts
08-Apr-20 15:03 46.569938 -120.541235 357 1102ft 0kts
08-Apr-20 15:04 46.569938 -120.541235 357 1102ft 0kts
08-Apr-20 15:05 46.569938 -120.541235 357 1102ft 0kts
08-Apr-20 15:06 46.569938 -120.541235 357 1102ft 0kts
08-Apr-20 15:07 46.569938 -120.541235 357 1102ft 0kts
08-Apr-20 15:08 46.569938 -120.541235 357 1102ft 0kts
08-Apr-20 15:09 46.569938 -120.541235 357 1102ft 0kts
08-Apr-20 15:10 46.569938 -120.541235 357 1102ft 0kts
08-Apr-20 15:11 46.569938 -120.541235 357 1102ft 0kts
08-Apr-20 15:12 46.569938 -120.541235 357 1102ft 0kts
08-Apr-20 15:13 46.569938 -120.541235 357 1102ft 0kts
08-Apr-20 15:14 46.569938 -120.541235 357 1102ft 0kts
08-Apr-20 15:15 46.569938 -120.541235 357 1102ft 0kts
08-Apr-20 15:16 46.569938 -120.541235 357 1102ft 0kts
08-Apr-20 15:17 46.569938 -120.541235 357 1102ft 0kts
08-Apr-20 15:18 46.569938 -120.541235 357 1102ft 0kts
08-Apr-20 15:19 46.569938 -120.541235 357 1102ft 0kts
08-Apr-20 15:20 46.569535 -120.541228 1 1102ft 2kts
08-Apr-20 15:21 46.568822 -120.541513 78 1102ft 3kts
08-Apr-20 15:22 46.568866 -120.541783 109 1102ft 0kts
08-Apr-20 15:23 46.568866 -120.541783 109 1102ft 0kts
08-Apr-20 15:24 46.568866 -120.541783 109 1102ft 0kts
08-Apr-20 15:25 46.568580 -120.540647 110 1102ft 12kts
08-Apr-20 15:26 46.566763 -120.533359 109 1102ft 22kts
08-Apr-20 15:27 46.566131 -120.531163 153 1102ft 0kts
08-Apr-20 15:28 46.567632 -120.539956 290 1103ft 118kts
08-Apr-20 15:29 46.597049 -120.582362 335 3724ft 181kts
08-Apr-20 15:30 46.652209 -120.606825 18 6118ft 240kts
08-Apr-20 15:31 46.666513 -120.525020 105 9140ft 237kts
08-Apr-20 15:32 46.646088 -120.426759 105 9993ft 271kts
08-Apr-20 15:33 46.622325 -120.323595 126 9994ft 262kts
08-Apr-20 15:34 46.560505 -120.329031 237 10605ft 270kts
08-Apr-20 15:35 46.551969 -120.433898 301 12197ft 271kts
08-Apr-20 15:36 46.603176 -120.513782 307 13668ft 274kts
08-Apr-20 15:37 46.649136 -120.609119 305 14000ft 305kts
08-Apr-20 15:38 46.699178 -120.714851 305 14008ft 325kts
08-Apr-20 15:39 46.750826 -120.823618 306 14027ft 330kts
08-Apr-20 15:40 46.803227 -120.934492 305 14030ft 330kts
08-Apr-20 15:41 46.854874 -121.044435 305 14032ft 328kts
08-Apr-20 15:42 46.906561 -121.154260 304 14032ft 326kts
08-Apr-20 15:43 46.957530 -121.263844 304 14040ft 325kts
08-Apr-20 15:44 47.008267 -121.373427 305 13359ft 324kts
08-Apr-20 15:45 47.057248 -121.478308 304 12349ft 292kts
08-Apr-20 15:46 47.101701 -121.575290 304 11347ft 282kts
08-Apr-20 15:47 47.145338 -121.670367 304 10348ft 280kts
08-Apr-20 15:48 47.188937 -121.765493 304 10047ft 281kts
08-Apr-20 15:49 47.185239 -121.872700 245 9448ft 281kts
08-Apr-20 15:50 47.151084 -121.975845 246 7952ft 278kts
08-Apr-20 15:51 47.131409 -122.078201 276 6658ft 255kts
08-Apr-20 15:52 47.143972 -122.178331 309 5134ft 248kts
08-Apr-20 15:53 47.191364 -122.248690 316 3945ft 234kts
08-Apr-20 15:54 47.242475 -122.301648 334 2874ft 222kts
08-Apr-20 15:55 47.295586 -122.307056 2 2457ft 180kts
08-Apr-20 15:56 47.339802 -122.308948 358 1901ft 120kts
08-Apr-20 15:57 47.371647 -122.308249 356 1431ft 113kts
08-Apr-20 15:58 47.402403 -122.308122 357 887ft 107kts
08-Apr-20 15:59 47.433228 -122.307971 358 451ft 103kts
08-Apr-20 16:00 47.443597 -122.307013 89 440ft 1kts
08-Apr-20 16:01 47.443520 -122.305769 146 440ft 5kts
08-Apr-20 16:02 47.443961 -122.303670 359 440ft 2kts
08-Apr-20 16:03 47.444030 -122.303670 359 440ft 0kts
08-Apr-20 16:04 47.444030 -122.303670 359 440ft 0kts
08-Apr-20 16:05 47.444030 -122.303670 359 440ft 0kts
08-Apr-20 16:06 47.444030 -122.303670 359 440ft 0kts
08-Apr-20 16:07 47.444030 -122.303670 359 440ft 0kts
08-Apr-20 16:08 47.444030 -122.303670 359 440ft 0kts

Navigation Log

Ident Type
Flight plan parsing failed, navigation log unavailable